Station: EBLG - 21/11/2017 09:50Z (il y a 23 minutes)
EBLG 210950Z 23015KT 4500 -RADZ BR SCT005 BKN006 09/08 Q1014 TEMPO 2500 -RADZ BR BKN003
Vent du 230º - 15 kt
Visibilité: 4500 m - faible pluie bruine (brume)
Ciel 50% couvert à 500 pieds - Ciel 75% couvert à 600 pieds
Température: +09ºC - Point de rosée: +08ºC - QNH: 1014 hPa
Temporairement
Visibilité: 2500 m - faible pluie bruine (brume)
Ciel 75% couvert à 300 pieds